sensor_id;sensor_type;location;lat;lon;timestamp;temperature;humidity
18882;DHT22;9573;50.948;11.600;2023-12-20T00:01:01;5.90;99.90
18882;DHT22;9573;50.948;11.600;2023-12-20T00:03:29;5.90;99.90
18882;DHT22;9573;50.948;11.600;2023-12-20T00:05:56;5.90;99.90
18882;DHT22;9573;50.948;11.600;2023-12-20T00:08:23;5.90;99.90
18882;DHT22;9573;50.948;11.600;2023-12-20T00:10:51;5.90;99.90
18882;DHT22;9573;50.948;11.600;2023-12-20T00:13:18;5.90;99.90
18882;DHT22;9573;50.948;11.600;2023-12-20T00:15:45;5.90;99.90
18882;DHT22;9573;50.948;11.600;2023-12-20T00:18:13;5.80;99.90
18882;DHT22;9573;50.948;11.600;2023-12-20T00:20:40;5.80;99.90
18882;DHT22;9573;50.948;11.600;2023-12-20T00:23:07;5.80;99.90
18882;DHT22;9573;50.948;11.600;2023-12-20T00:25:34;5.80;99.90
18882;DHT22;9573;50.948;11.600;2023-12-20T00:28:03;6.00;99.90
18882;DHT22;9573;50.948;11.600;2023-12-20T00:30:30;5.80;99.90
18882;DHT22;9573;50.948;11.600;2023-12-20T00:32:57;5.70;99.90
18882;DHT22;9573;50.948;11.600;2023-12-20T00:35:24;5.80;99.90
18882;DHT22;9573;50.948;11.600;2023-12-20T00:37:51;6.00;99.90
18882;DHT22;9573;50.948;11.600;2023-12-20T00:40:18;5.80;99.90
18882;DHT22;9573;50.948;11.600;2023-12-20T00:42:46;5.80;99.90
18882;DHT22;9573;50.948;11.600;2023-12-20T00:45:15;5.80;99.90
18882;DHT22;9573;50.948;11.600;2023-12-20T00:47:42;5.80;99.90
18882;DHT22;9573;50.948;11.600;2023-12-20T00:50:09;5.80;99.90
18882;DHT22;9573;50.948;11.600;2023-12-20T00:52:36;5.80;99.90
18882;DHT22;9573;50.948;11.600;2023-12-20T00:55:04;5.80;99.90
18882;DHT22;9573;50.948;11.600;2023-12-20T00:57:32;5.80;99.90
18882;DHT22;9573;50.948;11.600;2023-12-20T00:59:59;5.80;99.90
18882;DHT22;9573;50.948;11.600;2023-12-20T01:02:27;5.70;99.90
18882;DHT22;9573;50.948;11.600;2023-12-20T01:04:54;5.70;99.90
18882;DHT22;9573;50.948;11.600;2023-12-20T01:07:21;5.70;99.90
18882;DHT22;9573;50.948;11.600;2023-12-20T01:09:48;5.60;99.90
18882;DHT22;9573;50.948;11.600;2023-12-20T01:12:15;5.70;99.90
18882;DHT22;9573;50.948;11.600;2023-12-20T01:14:43;5.60;99.90
18882;DHT22;9573;50.948;11.600;2023-12-20T01:17:10;5.60;99.90
18882;DHT22;9573;50.948;11.600;2023-12-20T01:19:39;5.60;99.90
18882;DHT22;9573;50.948;11.600;2023-12-20T01:22:07;5.70;99.90
18882;DHT22;9573;50.948;11.600;2023-12-20T01:24:34;4.00;99.90
18882;DHT22;9573;50.948;11.600;2023-12-20T01:27:01;5.70;99.90
18882;DHT22;9573;50.948;11.600;2023-12-20T01:29:28;5.70;99.90
18882;DHT22;9573;50.948;11.600;2023-12-20T01:31:55;5.60;99.90
18882;DHT22;9573;50.948;11.600;2023-12-20T01:34:22;5.60;99.90
18882;DHT22;9573;50.948;11.600;2023-12-20T01:36:51;5.70;99.90
18882;DHT22;9573;50.948;11.600;2023-12-20T01:39:18;5.70;99.90
18882;DHT22;9573;50.948;11.600;2023-12-20T01:41:45;5.70;99.90
18882;DHT22;9573;50.948;11.600;2023-12-20T01:44:12;5.70;99.90
18882;DHT22;9573;50.948;11.600;2023-12-20T01:46:39;5.70;99.90
18882;DHT22;9573;50.948;11.600;2023-12-20T01:49:08;5.70;99.90
18882;DHT22;9573;50.948;11.600;2023-12-20T01:51:35;5.80;99.90
18882;DHT22;9573;50.948;11.600;2023-12-20T01:54:04;5.80;99.90
18882;DHT22;9573;50.948;11.600;2023-12-20T01:56:32;5.80;99.90
18882;DHT22;9573;50.948;11.600;2023-12-20T01:59:00;5.80;99.90
18882;DHT22;9573;50.948;11.600;2023-12-20T02:01:28;5.80;99.90
18882;DHT22;9573;50.948;11.600;2023-12-20T02:03:55;5.80;99.90
18882;DHT22;9573;50.948;11.600;2023-12-20T02:06:23;5.80;99.90
18882;DHT22;9573;50.948;11.600;2023-12-20T02:08:51;5.80;99.90
18882;DHT22;9573;50.948;11.600;2023-12-20T02:11:20;5.90;99.90
18882;DHT22;9573;50.948;11.600;2023-12-20T02:13:47;6.00;99.90
18882;DHT22;9573;50.948;11.600;2023-12-20T02:16:14;5.90;99.90
18882;DHT22;9573;50.948;11.600;2023-12-20T02:18:42;5.80;99.90
18882;DHT22;9573;50.948;11.600;2023-12-20T02:21:10;5.90;99.90
18882;DHT22;9573;50.948;11.600;2023-12-20T02:23:38;5.80;99.90
18882;DHT22;9573;50.948;11.600;2023-12-20T02:26:05;5.80;99.90
18882;DHT22;9573;50.948;11.600;2023-12-20T02:28:33;4.00;99.90
18882;DHT22;9573;50.948;11.600;2023-12-20T02:31:01;5.80;99.90
18882;DHT22;9573;50.948;11.600;2023-12-20T02:33:29;5.80;99.90
18882;DHT22;9573;50.948;11.600;2023-12-20T02:35:56;5.80;99.90
18882;DHT22;9573;50.948;11.600;2023-12-20T02:38:23;5.80;99.90
18882;DHT22;9573;50.948;11.600;2023-12-20T02:40:52;5.80;99.90
18882;DHT22;9573;50.948;11.600;2023-12-20T02:43:19;5.80;99.90
18882;DHT22;9573;50.948;11.600;2023-12-20T02:45:46;5.90;99.90
18882;DHT22;9573;50.948;11.600;2023-12-20T02:48:13;5.90;99.90
18882;DHT22;9573;50.948;11.600;2023-12-20T02:50:40;5.90;99.90
18882;DHT22;9573;50.948;11.600;2023-12-20T02:53:07;5.90;99.90
18882;DHT22;9573;50.948;11.600;2023-12-20T02:55:34;5.90;99.90
18882;DHT22;9573;50.948;11.600;2023-12-20T02:58:03;5.90;99.90
18882;DHT22;9573;50.948;11.600;2023-12-20T03:00:30;5.80;99.90
18882;DHT22;9573;50.948;11.600;2023-12-20T03:02:57;5.80;99.90
18882;DHT22;9573;50.948;11.600;2023-12-20T03:05:25;5.80;99.90
18882;DHT22;9573;50.948;11.600;2023-12-20T03:07:52;5.80;99.90
18882;DHT22;9573;50.948;11.600;2023-12-20T03:10:19;5.80;99.90
18882;DHT22;9573;50.948;11.600;2023-12-20T03:12:46;5.80;99.90
18882;DHT22;9573;50.948;11.600;2023-12-20T03:15:15;5.80;99.90
18882;DHT22;9573;50.948;11.600;2023-12-20T03:17:42;5.80;99.90
18882;DHT22;9573;50.948;11.600;2023-12-20T03:20:09;5.90;99.90
18882;DHT22;9573;50.948;11.600;2023-12-20T03:22:36;5.80;99.90
18882;DHT22;9573;50.948;11.600;2023-12-20T03:25:04;5.80;99.90
18882;DHT22;9573;50.948;11.600;2023-12-20T03:27:31;5.80;99.90
18882;DHT22;9573;50.948;11.600;2023-12-20T03:29:58;5.90;99.90
18882;DHT22;9573;50.948;11.600;2023-12-20T03:32:27;5.80;99.90
18882;DHT22;9573;50.948;11.600;2023-12-20T03:34:54;5.80;99.90
18882;DHT22;9573;50.948;11.600;2023-12-20T03:37:21;5.80;99.90
18882;DHT22;9573;50.948;11.600;2023-12-20T03:39:49;5.90;99.90
18882;DHT22;9573;50.948;11.600;2023-12-20T03:42:16;5.90;99.90
18882;DHT22;9573;50.948;11.600;2023-12-20T03:44:43;6.00;99.90
18882;DHT22;9573;50.948;11.600;2023-12-20T03:47:10;5.90;99.90
18882;DHT22;9573;50.948;11.600;2023-12-20T03:49:39;5.90;99.90
18882;DHT22;9573;50.948;11.600;2023-12-20T03:52:06;5.80;99.90
18882;DHT22;9573;50.948;11.600;2023-12-20T03:54:34;5.80;99.90
18882;DHT22;9573;50.948;11.600;2023-12-20T03:57:02;5.90;99.90
18882;DHT22;9573;50.948;11.600;2023-12-20T03:59:29;5.90;99.90
18882;DHT22;9573;50.948;11.600;2023-12-20T04:01:56;5.90;99.90
18882;DHT22;9573;50.948;11.600;2023-12-20T04:04:23;6.00;99.90
18882;DHT22;9573;50.948;11.600;2023-12-20T04:06:52;5.90;99.90
18882;DHT22;9573;50.948;11.600;2023-12-20T04:09:19;6.00;99.90
18882;DHT22;9573;50.948;11.600;2023-12-20T04:11:46;6.20;99.90
18882;DHT22;9573;50.948;11.600;2023-12-20T04:14:13;5.90;99.90
18882;DHT22;9573;50.948;11.600;2023-12-20T04:16:40;6.00;99.90
18882;DHT22;9573;50.948;11.600;2023-12-20T04:19:08;6.00;99.90
18882;DHT22;9573;50.948;11.600;2023-12-20T04:21:35;6.00;99.90
18882;DHT22;9573;50.948;11.600;2023-12-20T04:24:03;6.00;99.90
18882;DHT22;9573;50.948;11.600;2023-12-20T04:26:31;6.00;99.90
18882;DHT22;9573;50.948;11.600;2023-12-20T04:28:58;6.10;99.90
18882;DHT22;9573;50.948;11.600;2023-12-20T04:31:25;6.00;99.90
18882;DHT22;9573;50.948;11.600;2023-12-20T04:33:52;6.10;99.90
18882;DHT22;9573;50.948;11.600;2023-12-20T04:36:19;6.20;99.90
18882;DHT22;9573;50.948;11.600;2023-12-20T04:38:46;6.20;99.90
18882;DHT22;9573;50.948;11.600;2023-12-20T04:41:15;5.90;99.90
18882;DHT22;9573;50.948;11.600;2023-12-20T04:43:44;6.20;99.90
18882;DHT22;9573;50.948;11.600;2023-12-20T04:46:11;6.20;99.90
18882;DHT22;9573;50.948;11.600;2023-12-20T04:48:38;6.20;99.90
18882;DHT22;9573;50.948;11.600;2023-12-20T04:51:05;6.20;99.90
18882;DHT22;9573;50.948;11.600;2023-12-20T04:53:33;6.30;99.90
18882;DHT22;9573;50.948;11.600;2023-12-20T04:56:00;6.30;99.90
18882;DHT22;9573;50.948;11.600;2023-12-20T04:58:28;6.30;99.90
18882;DHT22;9573;50.948;11.600;2023-12-20T05:00:55;6.30;99.90
18882;DHT22;9573;50.948;11.600;2023-12-20T05:03:22;6.30;99.90
18882;DHT22;9573;50.948;11.600;2023-12-20T05:05:49;6.30;99.90
18882;DHT22;9573;50.948;11.600;2023-12-20T05:08:16;6.40;99.90
18882;DHT22;9573;50.948;11.600;2023-12-20T05:10:43;6.30;99.90
18882;DHT22;9573;50.948;11.600;2023-12-20T05:13:11;6.30;99.90
18882;DHT22;9573;50.948;11.600;2023-12-20T05:15:39;6.30;99.90
18882;DHT22;9573;50.948;11.600;2023-12-20T05:18:06;6.30;99.90
18882;DHT22;9573;50.948;11.600;2023-12-20T05:20:33;6.30;99.90
18882;DHT22;9573;50.948;11.600;2023-12-20T05:23:01;6.20;99.90
18882;DHT22;9573;50.948;11.600;2023-12-20T05:25:28;6.10;99.90
18882;DHT22;9573;50.948;11.600;2023-12-20T05:27:55;6.20;99.90
18882;DHT22;9573;50.948;11.600;2023-12-20T05:30:22;6.00;99.90
18882;DHT22;9573;50.948;11.600;2023-12-20T05:32:51;6.10;99.90
18882;DHT22;9573;50.948;11.600;2023-12-20T05:35:18;6.10;99.90
18882;DHT22;9573;50.948;11.600;2023-12-20T05:37:45;6.20;99.90
18882;DHT22;9573;50.948;11.600;2023-12-20T05:40:12;6.20;99.90
18882;DHT22;9573;50.948;11.600;2023-12-20T05:42:39;6.30;99.90
18882;DHT22;9573;50.948;11.600;2023-12-20T05:45:07;6.40;99.90
18882;DHT22;9573;50.948;11.600;2023-12-20T05:47:34;6.30;99.90
18882;DHT22;9573;50.948;11.600;2023-12-20T05:50:03;6.40;99.90
18882;DHT22;9573;50.948;11.600;2023-12-20T05:52:31;6.30;99.90
18882;DHT22;9573;50.948;11.600;2023-12-20T05:54:58;6.40;99.90
18882;DHT22;9573;50.948;11.600;2023-12-20T05:57:26;6.40;99.90
18882;DHT22;9573;50.948;11.600;2023-12-20T05:59:53;6.40;99.90
18882;DHT22;9573;50.948;11.600;2023-12-20T06:02:20;6.40;99.90
18882;DHT22;9573;50.948;11.600;2023-12-20T06:04:47;6.40;99.90
18882;DHT22;9573;50.948;11.600;2023-12-20T06:07:16;6.40;99.90
18882;DHT22;9573;50.948;11.600;2023-12-20T06:09:43;6.40;99.90
18882;DHT22;9573;50.948;11.600;2023-12-20T06:12:10;6.50;99.90
18882;DHT22;9573;50.948;11.600;2023-12-20T06:14:38;6.50;99.90
18882;DHT22;9573;50.948;11.600;2023-12-20T06:17:05;6.30;99.90
18882;DHT22;9573;50.948;11.600;2023-12-20T06:19:32;6.50;99.90
18882;DHT22;9573;50.948;11.600;2023-12-20T06:21:59;6.50;99.90
18882;DHT22;9573;50.948;11.600;2023-12-20T06:24:28;6.50;99.90
18882;DHT22;9573;50.948;11.600;2023-12-20T06:26:59;6.50;99.90
18882;DHT22;9573;50.948;11.600;2023-12-20T06:29:26;6.60;99.90
18882;DHT22;9573;50.948;11.600;2023-12-20T06:31:54;6.60;99.90
18882;DHT22;9573;50.948;11.600;2023-12-20T06:34:22;6.60;99.90
18882;DHT22;9573;50.948;11.600;2023-12-20T06:36:49;6.60;99.90
18882;DHT22;9573;50.948;11.600;2023-12-20T06:39:16;6.60;99.90
18882;DHT22;9573;50.948;11.600;2023-12-20T06:41:45;6.60;99.90
18882;DHT22;9573;50.948;11.600;2023-12-20T06:44:12;6.70;99.90
18882;DHT22;9573;50.948;11.600;2023-12-20T06:46:39;6.70;99.90
18882;DHT22;9573;50.948;11.600;2023-12-20T06:49:06;6.70;99.90
18882;DHT22;9573;50.948;11.600;2023-12-20T06:51:33;6.70;99.90
18882;DHT22;9573;50.948;11.600;2023-12-20T06:54:00;6.80;99.90
18882;DHT22;9573;50.948;11.600;2023-12-20T06:56:28;6.70;99.90
18882;DHT22;9573;50.948;11.600;2023-12-20T06:58:56;6.60;99.90
18882;DHT22;9573;50.948;11.600;2023-12-20T07:01:23;6.60;99.90
18882;DHT22;9573;50.948;11.600;2023-12-20T07:03:50;6.70;99.90
18882;DHT22;9573;50.948;11.600;2023-12-20T07:06:17;6.80;99.90
18882;DHT22;9573;50.948;11.600;2023-12-20T07:08:46;6.50;99.90
18882;DHT22;9573;50.948;11.600;2023-12-20T07:11:13;6.20;99.90
18882;DHT22;9573;50.948;11.600;2023-12-20T07:13:40;6.10;99.90
18882;DHT22;9573;50.948;11.600;2023-12-20T07:16:08;5.80;99.90
18882;DHT22;9573;50.948;11.600;2023-12-20T07:18:36;5.60;99.90
18882;DHT22;9573;50.948;11.600;2023-12-20T07:21:03;5.70;99.90
18882;DHT22;9573;50.948;11.600;2023-12-20T07:23:31;5.40;99.90
18882;DHT22;9573;50.948;11.600;2023-12-20T07:25:58;5.30;99.90
18882;DHT22;9573;50.948;11.600;2023-12-20T07:28:25;5.20;99.90
18882;DHT22;9573;50.948;11.600;2023-12-20T07:30:52;5.20;99.90
18882;DHT22;9573;50.948;11.600;2023-12-20T07:33:20;5.30;99.90
18882;DHT22;9573;50.948;11.600;2023-12-20T07:35:47;5.30;99.90
18882;DHT22;9573;50.948;11.600;2023-12-20T07:38:15;5.40;99.90
18882;DHT22;9573;50.948;11.600;2023-12-20T07:40:42;5.50;99.90
18882;DHT22;9573;50.948;11.600;2023-12-20T07:43:09;5.80;99.90
18882;DHT22;9573;50.948;11.600;2023-12-20T07:45:36;6.10;99.90
18882;DHT22;9573;50.948;11.600;2023-12-20T07:48:04;6.00;99.90
18882;DHT22;9573;50.948;11.600;2023-12-20T07:50:34;6.10;99.90
18882;DHT22;9573;50.948;11.600;2023-12-20T07:53:02;6.00;99.90
18882;DHT22;9573;50.948;11.600;2023-12-20T07:55:29;6.00;99.90
18882;DHT22;9573;50.948;11.600;2023-12-20T07:57:57;5.90;99.90
18882;DHT22;9573;50.948;11.600;2023-12-20T08:00:24;6.00;99.90
18882;DHT22;9573;50.948;11.600;2023-12-20T08:02:51;5.70;99.90
18882;DHT22;9573;50.948;11.600;2023-12-20T08:05:18;5.90;99.90
18882;DHT22;9573;50.948;11.600;2023-12-20T08:07:47;5.80;99.90
18882;DHT22;9573;50.948;11.600;2023-12-20T08:10:14;5.80;99.90
18882;DHT22;9573;50.948;11.600;2023-12-20T08:12:41;5.90;99.90
18882;DHT22;9573;50.948;11.600;2023-12-20T08:15:09;6.20;99.90
18882;DHT22;9573;50.948;11.600;2023-12-20T08:17:36;6.70;99.90
18882;DHT22;9573;50.948;11.600;2023-12-20T08:20:04;7.00;99.90
18882;DHT22;9573;50.948;11.600;2023-12-20T08:22:32;7.20;99.90
18882;DHT22;9573;50.948;11.600;2023-12-20T08:25:00;7.60;99.90
18882;DHT22;9573;50.948;11.600;2023-12-20T08:27:27;7.50;99.90
18882;DHT22;9573;50.948;11.600;2023-12-20T08:29:55;7.40;99.90
18882;DHT22;9573;50.948;11.600;2023-12-20T08:32:22;7.40;99.90
18882;DHT22;9573;50.948;11.600;2023-12-20T08:34:51;7.40;99.90
18882;DHT22;9573;50.948;11.600;2023-12-20T08:37:18;7.40;99.90
18882;DHT22;9573;50.948;11.600;2023-12-20T08:39:46;7.50;99.90
18882;DHT22;9573;50.948;11.600;2023-12-20T08:42:14;7.40;99.90
18882;DHT22;9573;50.948;11.600;2023-12-20T08:44:41;7.40;99.90
18882;DHT22;9573;50.948;11.600;2023-12-20T08:47:09;7.40;99.90
18882;DHT22;9573;50.948;11.600;2023-12-20T08:49:38;7.40;99.90
18882;DHT22;9573;50.948;11.600;2023-12-20T08:52:05;7.40;99.90
18882;DHT22;9573;50.948;11.600;2023-12-20T08:54:32;7.20;99.90
18882;DHT22;9573;50.948;11.600;2023-12-20T08:56:59;7.10;99.90
18882;DHT22;9573;50.948;11.600;2023-12-20T08:59:28;6.90;99.90
18882;DHT22;9573;50.948;11.600;2023-12-20T09:01:55;7.00;99.90
18882;DHT22;9573;50.948;11.600;2023-12-20T09:04:22;6.90;99.90
18882;DHT22;9573;50.948;11.600;2023-12-20T09:06:49;7.10;99.90
18882;DHT22;9573;50.948;11.600;2023-12-20T09:09:16;7.20;99.90
18882;DHT22;9573;50.948;11.600;2023-12-20T09:11:44;7.20;99.90
18882;DHT22;9573;50.948;11.600;2023-12-20T09:14:11;7.10;99.90
18882;DHT22;9573;50.948;11.600;2023-12-20T09:16:40;6.90;99.90
18882;DHT22;9573;50.948;11.600;2023-12-20T09:19:07;6.80;99.90
18882;DHT22;9573;50.948;11.600;2023-12-20T09:21:34;7.00;99.90
18882;DHT22;9573;50.948;11.600;2023-12-20T09:24:02;7.10;99.90
18882;DHT22;9573;50.948;11.600;2023-12-20T09:26:29;7.30;99.90
18882;DHT22;9573;50.948;11.600;2023-12-20T09:28:56;7.50;99.90
18882;DHT22;9573;50.948;11.600;2023-12-20T09:31:23;7.80;99.90
18882;DHT22;9573;50.948;11.600;2023-12-20T09:33:51;8.20;99.90
18882;DHT22;9573;50.948;11.600;2023-12-20T09:36:19;8.30;99.90
18882;DHT22;9573;50.948;11.600;2023-12-20T09:38:46;8.30;99.90
18882;DHT22;9573;50.948;11.600;2023-12-20T09:41:13;8.30;99.90
18882;DHT22;9573;50.948;11.600;2023-12-20T09:43:41;8.50;99.90
18882;DHT22;9573;50.948;11.600;2023-12-20T09:46:11;8.50;99.90
18882;DHT22;9573;50.948;11.600;2023-12-20T09:48:41;8.30;99.90
18882;DHT22;9573;50.948;11.600;2023-12-20T09:51:11;8.10;99.90
18882;DHT22;9573;50.948;11.600;2023-12-20T09:53:40;7.90;99.90
18882;DHT22;9573;50.948;11.600;2023-12-20T09:56:08;7.80;99.90
18882;DHT22;9573;50.948;11.600;2023-12-20T09:58:36;7.80;99.90
18882;DHT22;9573;50.948;11.600;2023-12-20T10:01:06;7.80;99.90
18882;DHT22;9573;50.948;11.600;2023-12-20T10:03:34;8.00;99.90
18882;DHT22;9573;50.948;11.600;2023-12-20T10:06:01;8.10;99.90
18882;DHT22;9573;50.948;11.600;2023-12-20T10:08:30;8.10;99.90
18882;DHT22;9573;50.948;11.600;2023-12-20T10:10:57;8.10;99.90
18882;DHT22;9573;50.948;11.600;2023-12-20T10:13:28;8.10;99.90
18882;DHT22;9573;50.948;11.600;2023-12-20T10:15:55;8.30;99.90
18882;DHT22;9573;50.948;11.600;2023-12-20T10:18:23;8.80;99.90
18882;DHT22;9573;50.948;11.600;2023-12-20T10:20:50;9.00;99.90
18882;DHT22;9573;50.948;11.600;2023-12-20T10:23:17;9.20;99.90
18882;DHT22;9573;50.948;11.600;2023-12-20T10:25:56;9.40;99.90
18882;DHT22;9573;50.948;11.600;2023-12-20T10:28:24;9.30;99.90
18882;DHT22;9573;50.948;11.600;2023-12-20T10:30:53;9.20;99.90
18882;DHT22;9573;50.948;11.600;2023-12-20T10:33:24;9.10;99.90
18882;DHT22;9573;50.948;11.600;2023-12-20T10:35:52;9.60;99.90
18882;DHT22;9573;50.948;11.600;2023-12-20T10:38:20;12.30;99.90
18882;DHT22;9573;50.948;11.600;2023-12-20T10:40:49;12.80;99.90
18882;DHT22;9573;50.948;11.600;2023-12-20T10:43:21;12.00;99.90
18882;DHT22;9573;50.948;11.600;2023-12-20T10:45:48;11.40;99.90
18882;DHT22;9573;50.948;11.600;2023-12-20T10:48:16;10.90;99.90
18882;DHT22;9573;50.948;11.600;2023-12-20T10:50:44;10.30;99.90
18882;DHT22;9573;50.948;11.600;2023-12-20T10:53:13;10.00;99.90
18882;DHT22;9573;50.948;11.600;2023-12-20T10:55:41;9.70;99.90
18882;DHT22;9573;50.948;11.600;2023-12-20T10:58:10;9.70;99.90
18882;DHT22;9573;50.948;11.600;2023-12-20T11:00:40;10.00;99.90
18882;DHT22;9573;50.948;11.600;2023-12-20T11:03:09;11.90;99.90
18882;DHT22;9573;50.948;11.600;2023-12-20T11:05:43;13.80;99.90
18882;DHT22;9573;50.948;11.600;2023-12-20T11:08:19;13.60;99.90
18882;DHT22;9573;50.948;11.600;2023-12-20T11:10:54;13.70;99.90
18882;DHT22;9573;50.948;11.600;2023-12-20T11:13:29;14.50;99.90
18882;DHT22;9573;50.948;11.600;2023-12-20T11:15:58;14.30;99.90
18882;DHT22;9573;50.948;11.600;2023-12-20T11:18:29;13.50;99.90
18882;DHT22;9573;50.948;11.600;2023-12-20T11:21:00;12.60;99.90
18882;DHT22;9573;50.948;11.600;2023-12-20T11:23:29;12.50;99.90
18882;DHT22;9573;50.948;11.600;2023-12-20T11:25:58;12.80;99.90
18882;DHT22;9573;50.948;11.600;2023-12-20T11:28:27;14.00;99.90
18882;DHT22;9573;50.948;11.600;2023-12-20T11:30:56;14.30;99.90
18882;DHT22;9573;50.948;11.600;2023-12-20T11:33:26;13.30;99.90
18882;DHT22;9573;50.948;11.600;2023-12-20T11:35:56;12.40;99.90
18882;DHT22;9573;50.948;11.600;2023-12-20T11:38:24;11.80;99.90
18882;DHT22;9573;50.948;11.600;2023-12-20T11:40:53;11.30;99.90
18882;DHT22;9573;50.948;11.600;2023-12-20T11:43:34;11.10;99.90
18882;DHT22;9573;50.948;11.600;2023-12-20T11:46:05;10.80;99.90
18882;DHT22;9573;50.948;11.600;2023-12-20T11:48:35;10.70;99.90
18882;DHT22;9573;50.948;11.600;2023-12-20T11:51:09;10.50;99.90
18882;DHT22;9573;50.948;11.600;2023-12-20T11:53:36;10.40;99.90
18882;DHT22;9573;50.948;11.600;2023-12-20T11:56:04;10.50;99.90
18882;DHT22;9573;50.948;11.600;2023-12-20T11:58:34;10.50;99.90
18882;DHT22;9573;50.948;11.600;2023-12-20T12:01:01;10.60;99.90
18882;DHT22;9573;50.948;11.600;2023-12-20T12:03:30;11.80;99.90
18882;DHT22;9573;50.948;11.600;2023-12-20T12:05:58;10.70;99.90
18882;DHT22;9573;50.948;11.600;2023-12-20T12:08:26;10.60;99.90
18882;DHT22;9573;50.948;11.600;2023-12-20T12:10:53;10.30;99.90
18882;DHT22;9573;50.948;11.600;2023-12-20T12:13:20;10.20;99.90
18882;DHT22;9573;50.948;11.600;2023-12-20T12:15:49;10.20;99.90
18882;DHT22;9573;50.948;11.600;2023-12-20T12:18:17;9.90;99.90
18882;DHT22;9573;50.948;11.600;2023-12-20T12:20:45;9.70;99.90
18882;DHT22;9573;50.948;11.600;2023-12-20T12:23:12;9.60;99.90
18882;DHT22;9573;50.948;11.600;2023-12-20T12:25:39;9.40;99.90
18882;DHT22;9573;50.948;11.600;2023-12-20T12:28:06;9.40;99.90
18882;DHT22;9573;50.948;11.600;2023-12-20T12:30:33;9.50;99.90
18882;DHT22;9573;50.948;11.600;2023-12-20T12:33:03;9.40;99.90
18882;DHT22;9573;50.948;11.600;2023-12-20T12:35:31;9.40;99.90
18882;DHT22;9573;50.948;11.600;2023-12-20T12:37:59;9.50;99.90
18882;DHT22;9573;50.948;11.600;2023-12-20T12:40:28;9.30;99.90
18882;DHT22;9573;50.948;11.600;2023-12-20T12:42:55;9.10;99.90
18882;DHT22;9573;50.948;11.600;2023-12-20T12:45:22;9.00;99.90
18882;DHT22;9573;50.948;11.600;2023-12-20T12:47:50;9.00;99.90
18882;DHT22;9573;50.948;11.600;2023-12-20T12:50:20;9.10;99.90
18882;DHT22;9573;50.948;11.600;2023-12-20T12:52:48;9.20;99.90
18882;DHT22;9573;50.948;11.600;2023-12-20T12:55:15;9.20;99.90
18882;DHT22;9573;50.948;11.600;2023-12-20T12:57:42;9.10;99.90
18882;DHT22;9573;50.948;11.600;2023-12-20T13:00:10;9.10;99.90
18882;DHT22;9573;50.948;11.600;2023-12-20T13:02:39;9.00;99.90
18882;DHT22;9573;50.948;11.600;2023-12-20T13:05:07;8.90;99.90
18882;DHT22;9573;50.948;11.600;2023-12-20T13:07:36;9.20;99.90
18882;DHT22;9573;50.948;11.600;2023-12-20T13:10:05;9.50;99.90
18882;DHT22;9573;50.948;11.600;2023-12-20T13:12:33;9.90;99.90
18882;DHT22;9573;50.948;11.600;2023-12-20T13:15:00;10.60;99.90
18882;DHT22;9573;50.948;11.600;2023-12-20T13:17:29;11.10;99.90
18882;DHT22;9573;50.948;11.600;2023-12-20T13:19:56;10.90;99.90
18882;DHT22;9573;50.948;11.600;2023-12-20T13:22:23;10.60;99.90
18882;DHT22;9573;50.948;11.600;2023-12-20T13:24:52;10.80;99.90
18882;DHT22;9573;50.948;11.600;2023-12-20T13:27:19;10.90;99.90
18882;DHT22;9573;50.948;11.600;2023-12-20T13:29:46;10.60;99.90
18882;DHT22;9573;50.948;11.600;2023-12-20T13:32:13;10.10;99.90
18882;DHT22;9573;50.948;11.600;2023-12-20T13:34:40;9.90;99.90
18882;DHT22;9573;50.948;11.600;2023-12-20T13:37:07;9.60;99.90
18882;DHT22;9573;50.948;11.600;2023-12-20T13:39:34;9.20;99.90
18882;DHT22;9573;50.948;11.600;2023-12-20T13:42:03;8.80;99.90
18882;DHT22;9573;50.948;11.600;2023-12-20T13:44:30;8.80;99.90
18882;DHT22;9573;50.948;11.600;2023-12-20T13:46:58;9.20;99.90
18882;DHT22;9573;50.948;11.600;2023-12-20T13:49:25;9.50;99.90
18882;DHT22;9573;50.948;11.600;2023-12-20T13:51:54;9.50;99.90
18882;DHT22;9573;50.948;11.600;2023-12-20T13:54:21;9.40;99.90
18882;DHT22;9573;50.948;11.600;2023-12-20T13:56:49;9.00;99.90
18882;DHT22;9573;50.948;11.600;2023-12-20T13:59:17;8.70;99.90
18882;DHT22;9573;50.948;11.600;2023-12-20T14:01:44;8.40;99.90
18882;DHT22;9573;50.948;11.600;2023-12-20T14:04:11;8.20;99.90
18882;DHT22;9573;50.948;11.600;2023-12-20T14:06:38;8.00;99.90
18882;DHT22;9573;50.948;11.600;2023-12-20T14:09:06;7.80;99.90
18882;DHT22;9573;50.948;11.600;2023-12-20T14:11:33;7.70;99.90
18882;DHT22;9573;50.948;11.600;2023-12-20T14:14:06;7.50;99.90
18882;DHT22;9573;50.948;11.600;2023-12-20T14:16:35;7.50;99.90
18882;DHT22;9573;50.948;11.600;2023-12-20T14:19:03;7.30;99.90
18882;DHT22;9573;50.948;11.600;2023-12-20T14:21:32;7.20;99.90
18882;DHT22;9573;50.948;11.600;2023-12-20T14:24:00;7.20;99.90
18882;DHT22;9573;50.948;11.600;2023-12-20T14:26:27;7.10;99.90
18882;DHT22;9573;50.948;11.600;2023-12-20T14:28:54;7.10;99.90
18882;DHT22;9573;50.948;11.600;2023-12-20T14:31:21;7.30;99.90
18882;DHT22;9573;50.948;11.600;2023-12-20T14:33:51;7.00;99.90
18882;DHT22;9573;50.948;11.600;2023-12-20T14:36:19;7.00;99.90
18882;DHT22;9573;50.948;11.600;2023-12-20T14:38:46;7.00;99.90
18882;DHT22;9573;50.948;11.600;2023-12-20T14:41:15;7.10;99.90
18882;DHT22;9573;50.948;11.600;2023-12-20T14:43:43;7.20;99.90
18882;DHT22;9573;50.948;11.600;2023-12-20T14:46:10;7.20;99.90
18882;DHT22;9573;50.948;11.600;2023-12-20T14:48:37;7.30;99.90
18882;DHT22;9573;50.948;11.600;2023-12-20T14:51:06;7.20;99.90
18882;DHT22;9573;50.948;11.600;2023-12-20T14:53:33;7.30;99.90
18882;DHT22;9573;50.948;11.600;2023-12-20T14:56:03;7.30;99.90
18882;DHT22;9573;50.948;11.600;2023-12-20T14:58:31;7.30;99.90
18882;DHT22;9573;50.948;11.600;2023-12-20T15:00:59;7.30;99.90
18882;DHT22;9573;50.948;11.600;2023-12-20T15:03:26;7.30;99.90
18882;DHT22;9573;50.948;11.600;2023-12-20T15:05:54;7.30;99.90
18882;DHT22;9573;50.948;11.600;2023-12-20T15:08:25;7.40;99.90
18882;DHT22;9573;50.948;11.600;2023-12-20T15:10:52;7.40;99.90
18882;DHT22;9573;50.948;11.600;2023-12-20T15:13:20;7.40;99.90
18882;DHT22;9573;50.948;11.600;2023-12-20T15:15:47;7.30;99.90
18882;DHT22;9573;50.948;11.600;2023-12-20T15:18:14;7.20;99.90
18882;DHT22;9573;50.948;11.600;2023-12-20T15:20:41;7.20;99.90
18882;DHT22;9573;50.948;11.600;2023-12-20T15:23:09;7.20;99.90
18882;DHT22;9573;50.948;11.600;2023-12-20T15:25:37;7.20;99.90
18882;DHT22;9573;50.948;11.600;2023-12-20T15:28:05;7.10;99.90
18882;DHT22;9573;50.948;11.600;2023-12-20T15:30:32;7.20;99.90
18882;DHT22;9573;50.948;11.600;2023-12-20T15:33:01;7.30;99.90
18882;DHT22;9573;50.948;11.600;2023-12-20T15:35:29;7.20;99.90
18882;DHT22;9573;50.948;11.600;2023-12-20T15:37:56;7.20;99.90
18882;DHT22;9573;50.948;11.600;2023-12-20T15:40:24;7.20;99.90
18882;DHT22;9573;50.948;11.600;2023-12-20T15:42:52;7.20;99.90
18882;DHT22;9573;50.948;11.600;2023-12-20T15:45:21;7.10;99.90
18882;DHT22;9573;50.948;11.600;2023-12-20T15:47:48;7.20;99.90